Terminal Aerodrome Forecast
Issued by NWS Cleveland, OH

Home | Current Version | Previous Version | Text Only | Print | Product List | Glossary On
Versions: 1 2 3 4 5 6 7 8 9 10 11 12 13 14 15 16
196
FTUS41 KCLE 171126
TAFCAK
TAF
KCAK 171126Z 1712/1812 20006KT P6SM SKC
     FM171500 23012KT P6SM SCT250
     FM172300 22007KT P6SM SKC=

USA.gov is the U.S. government's official web portal to all federal, state and local government web resources and services.